• Join FlightAware (Why Join?)
  • Login
  • US Flag 
08:19AM EDT


 

Airport Tracker/Info


-or-


 

Live Flight TrackerFlight Track Log ✈ UAL252 ✈ 24-Jun-2013 ✈ KBOS - KIAH

Flight Track Log - Related Links

Times and Time Zones

All times are in EDT time to prevent confusion due to time zone crossing. See the UAL252 flight status page for this flight to view local times or setup timezone preferences in your user account.

Time Position Orientation Groundspeed Altitude Reporting Facility
EDT Latitude Longitude Course Direction KTS MPH feet Rate Location/Type
06:44AM 42.3500 -71.0167 280° West 157 181 800  Level KA90
06:44AM 42.3167 -71.0000 160° South 197 227 1,800 1,800 Climbing KA90
06:45AM 42.3167 -70.9000 90° East 253 291 4,000 2,400 Climbing KA90
06:46AM 42.3355 -70.7238 172° South  Level FlightAware Approximate
06:47AM 42.2489 -70.7933 228° Southwest  Level FlightAware Approximate
06:47AM 42.3278 -70.7692 83° East 287 330 7,500  Level Boston Center
06:48AM 42.1888 -70.9206 240° Southwest  Level FlightAware Approximate
06:48AM 42.2525 -70.7572 173° South 189 217 10,100  Level Boston Center
06:49AM 42.1961 -71.0687 280° West  Level FlightAware Approximate
06:49AM 42.2314 -70.8783 257° West 166 191 12,100  Level Boston Center
06:50AM 42.2286 -70.9933 268° West 264 304 14,000 840 Climbing Boston Center
06:51AM 42.2281 -71.1222 270° West 330 380 13,900 120 Descending Boston Center
06:52AM 42.2253 -71.2458 268° West 341 392 14,300 1,260 Climbing Boston Center
06:53AM 42.2203 -71.3775 267° West 354 407 16,500 2,160 Climbing Boston Center
06:54AM 42.2153 -71.5067 267° West 354 407 18,700 1,980 Climbing Boston Center
06:55AM 42.2100 -71.6469 267° West 360 414 20,500 1,680 Climbing Boston Center
06:56AM 42.2025 -71.7900 266° West 370 426 22,100 1,200 Climbing Boston Center
06:57AM 42.1803 -71.9275 258° West 376 433 23,000 420 Climbing Boston Center
06:58AM 42.1517 -72.0706 255° West 381 438 23,000 240 Level Boston Center
06:59AM 42.1250 -72.2106 256° West 386 444 23,500 900 Climbing Boston Center
07:00AM 42.0981 -72.3506 256° West 393 452 24,900 1,380 Climbing Boston Center
07:01AM 42.0689 -72.4989 255° West 398 458 26,300 1,200 Climbing Boston Center
07:02AM 42.0397 -72.6469 255° West 404 465 27,400 1,200 Climbing Boston Center
07:03AM 42.0100 -72.8006 255° West 416 479 28,700 1,200 Climbing Boston Center
07:04AM 41.9783 -72.9567 255° West 422 486 29,900 1,140 Climbing Boston Center
07:05AM 41.9108 -73.0983 237° Southwest 437 503 31,100 1,320 Climbing Boston Center
07:06AM 41.8122 -73.1922 215° Southwest 429 494 32,600 1,320 Climbing Boston Center
07:07AM 41.7117 -73.2744 211° Southwest 424 488 33,800 1,200 Climbing Boston Center
07:08AM 41.6211 -73.3758 220° Southwest 429 494 35,000 780 Climbing Boston Center
07:10AM 41.4992 -73.5661 229° Southwest 418 481 36,000 360 Climbing New York Center
07:11AM 41.4214 -73.6844 229° Southwest 424 488 36,000 -60 Level New York Center
07:12AM 41.3456 -73.8000 229° Southwest 429 494 35,900 -60 Descending New York Center
07:13AM 41.2611 -73.9286 229° Southwest 424 488 35,900  Level New York Center
07:14AM 41.1831 -74.0406 227° Southwest 424 488 35,900  Level New York Center
07:15AM 41.1111 -74.1556 230° Southwest 424 488 36,000  Climbing New York Center
07:16AM 41.0347 -74.2672 228° Southwest 424 488 36,000  Level New York Center
07:17AM 40.9606 -74.3844 230° Southwest 424 488 36,000  Level New York Center
07:18AM 40.8900 -74.5042 232° Southwest 418 481 36,000  Level New York Center
07:19AM 40.8222 -74.6100 230° Southwest 418 481 36,000  Level New York Center
07:20AM 40.7517 -74.7239 231° Southwest 418 481 36,000 -60 Level New York Center
07:21AM 40.6789 -74.8400 230° Southwest 418 481 35,900 -60 Descending New York Center
07:22AM 40.6064 -74.9533 230° Southwest 418 481 35,900  Level New York Center
07:23AM 40.5375 -75.0667 231° Southwest 412 474 35,900  Level New York Center
07:24AM 40.4644 -75.1847 231° Southwest 412 474 36,000  Climbing New York Center
07:25AM 40.3914 -75.2972 230° Southwest 412 474 36,000  Level New York Center
07:26AM 40.3225 -75.4072 231° Southwest 412 474 36,000  Level New York Center
07:27AM 40.2469 -75.5244 230° Southwest 412 474 36,000 -60 Level New York Center
07:28AM 40.1836 -75.6450 236° Southwest 412 474 35,900 -60 Descending New York Center
07:29AM 40.1225 -75.7656 236° Southwest 407 468 35,900  Level New York Center
07:30AM 40.0608 -75.8914 237° Southwest 407 468 35,900  Level New York Center
07:31AM 39.9989 -76.0169 237° Southwest 413 475 36,000  Climbing New York Center
07:32AM 39.9328 -76.1419 235° Southwest 419 482 36,000  Level New York Center
07:33AM 39.8600 -76.2744 234° Southwest 424 488 36,000  Level New York Center
07:34AM 39.7961 -76.3936 235° Southwest 424 488 36,000  Level New York Center
07:35AM 39.7336 -76.5183 237° Southwest 419 482 36,000  Level New York Center
07:36AM 39.6694 -76.6397 236° Southwest 419 482 36,000  Level New York Center
07:37AM 39.6089 -76.7614 237° Southwest 419 482 36,000  Level New York Center
07:38AM 39.5467 -76.8775 235° Southwest 414 476 36,000  Level New York Center
07:39AM 39.4511 -77.0214 229° Southwest 390 449 36,000  Level Washington Center
07:40AM 39.3686 -77.1111 220° Southwest 380 437 36,000  Level Washington Center
07:41AM 39.2800 -77.2031 219° Southwest 392 451 36,000  Level Washington Center
07:42AM 39.1953 -77.2922 219° Southwest 398 458 36,000  Level Washington Center
07:43AM 39.1086 -77.3839 219° Southwest 404 465 36,000  Level Washington Center
07:44AM 39.0217 -77.4725 218° Southwest 404 465 36,000  Level Washington Center
07:45AM 38.9325 -77.5664 219° Southwest 409 471 36,000  Level Washington Center
07:46AM 38.8478 -77.6572 220° Southwest 409 471 36,000  Level Washington Center
07:47AM 38.7631 -77.7375 216° Southwest 414 476 36,000  Level Washington Center
07:48AM 38.6736 -77.8306 219° Southwest 419 482 36,000  Level Washington Center
07:49AM 38.6008 -77.9319 227° Southwest 404 465 36,000  Level Washington Center
07:50AM 38.5339 -78.0494 234° Southwest 404 465 36,000  Level Washington Center
07:51AM 38.4539 -78.1872 233° Southwest 404 465 36,000  Level Washington Center
07:52AM 38.3844 -78.3014 232° Southwest 404 465 36,000  Level Washington Center
07:53AM 38.3172 -78.4156 233° Southwest 404 465 36,000  Level Washington Center
07:54AM 38.2500 -78.5319 234° Southwest 404 465 36,000  Level Washington Center
07:55AM 38.1844 -78.6456 234° Southwest 398 458 36,000  Level Washington Center
07:56AM 38.1103 -78.7692 233° Southwest 406 467 36,000  Level Washington Center
07:57AM 38.0428 -78.8822 233° Southwest 406 467 36,000  Level Washington Center
07:58AM 37.9728 -78.9953 232° Southwest 406 467 36,000  Level Washington Center
07:59AM 37.9092 -79.1003 233° Southwest 406 467 36,000  Level Washington Center
08:00AM 37.8494 -79.2211 238° Southwest 411 473 36,000  Level Washington Center
08:01AM 37.7758 -79.3700 238° Southwest 417 480 36,000 300 Level Washington Center
08:02AM 37.7047 -79.5056 236° Southwest 422 486 36,700 840 Climbing Washington Center
08:03AM 37.6422 -79.6281 237° Southwest 427 491 37,700 600 Climbing Washington Center
08:04AM 37.5864 -79.7406 238° Southwest 420 483 38,000 120 Climbing Washington Center
08:05AM 37.5256 -79.8708 240° Southwest 430 495 38,000  Level Washington Center
08:06AM 37.4628 -79.9875 236° Southwest 430 495 38,000  Level Washington Center
08:09AM 37.2689 -80.3617 237° Southwest 430 495 38,000  Level Atlanta Center
08:10AM 37.2036 -80.4819 236° Southwest 430 495 38,000  Level Atlanta Center
08:11AM 37.1425 -80.6047 238° Southwest 435 501 38,000  Level Atlanta Center
08:12AM 37.0733 -80.7428 238° Southwest 430 495 38,000  Level Atlanta Center
08:13AM 37.0267 -80.8722 246° West 419 482 38,000  Level Atlanta Center
08:14AM 36.9800 -81.0039 246° West 413 475 38,000  Level Atlanta Center
08:15AM 36.9353 -81.1356 247° West 413 475 38,000  Level Atlanta Center
08:16AM 36.8922 -81.2539 246° West 413 475 38,000  Level Atlanta Center
08:17AM 36.8428 -81.3853 245° Southwest 413 475 38,000  Level Atlanta Center
08:18AM 36.7956 -81.5164 246° West 418 481 38,000  Level Atlanta Center
08:19AM 36.7503 -81.6528 248° West 423 487 38,000  Level Atlanta Center
08:20AM 36.7028 -81.7861 246° West 423 487 38,000  Level Atlanta Center
08:21AM 36.6447 -81.9172 241° Southwest 423 487 38,000  Level Atlanta Center
08:22AM 36.5758 -82.0378 235° Southwest 434 499 38,000  Level Atlanta Center
08:23AM 36.5089 -82.1583 235° Southwest 434 499 38,000  Level Atlanta Center
08:24AM 36.4419 -82.2786 235° Southwest 434 499 38,000  Level Atlanta Center
08:25AM 36.3728 -82.3989 234° Southwest 429 494 38,000  Level Atlanta Center
08:26AM 36.3056 -82.5214 236° Southwest 429 494 38,000  Level Atlanta Center
08:27AM 36.2358 -82.6436 235° Southwest 429 494 38,000  Level Atlanta Center
08:28AM 36.1581 -82.7761 234° Southwest 434 499 38,000  Level Atlanta Center
08:29AM 36.0906 -82.9003 236° Southwest 434 499 38,000  Level Atlanta Center
08:30AM 36.0186 -83.0247 234° Southwest 434 499 38,000  Level Atlanta Center
08:31AM 35.9486 -83.1436 234° Southwest 434 499 38,000  Level Atlanta Center
08:32AM 35.8806 -83.2672 236° Southwest 439 505 38,000  Level Atlanta Center
08:33AM 35.8083 -83.3908 234° Southwest 439 505 38,000  Level Atlanta Center
08:34AM 35.7381 -83.5142 235° Southwest 445 512 38,000  Level Atlanta Center
08:35AM 35.6656 -83.6350 234° Southwest 445 512 38,000  Level Atlanta Center
08:36AM 35.5928 -83.7578 234° Southwest 450 518 38,000  Level Atlanta Center
08:37AM 35.5219 -83.8831 235° Southwest 450 518 38,000  Level Atlanta Center
08:38AM 35.4575 -83.9903 234° Southwest 450 518 38,000  Level Atlanta Center
08:39AM 35.3867 -84.1100 234° Southwest 445 512 38,000  Level Atlanta Center
08:40AM 35.3156 -84.2347 235° Southwest 445 512 38,000  Level Atlanta Center
08:41AM 35.2422 -84.3514 232° Southwest 445 512 38,000  Level Atlanta Center
08:42AM 35.1708 -84.4733 234° Southwest 445 512 38,000  Level Atlanta Center
08:43AM 35.0975 -84.5947 234° Southwest 445 512 38,000  Level Atlanta Center
08:44AM 35.0278 -84.7136 234° Southwest 445 512 38,000  Level Atlanta Center
08:45AM 34.9564 -84.8319 234° Southwest 445 512 38,000  Level Atlanta Center
08:46AM 34.8844 -84.9503 233° Southwest 445 512 38,000  Level Atlanta Center
08:47AM 34.8125 -85.0658 233° Southwest 445 512 38,000  Level Atlanta Center
08:48AM 34.7406 -85.1864 234° Southwest 445 512 38,000  Level Atlanta Center
08:49AM 34.6664 -85.3067 233° Southwest 445 512 38,000  Level Atlanta Center
08:50AM 34.5922 -85.4242 233° Southwest 445 512 38,000  Level Atlanta Center
08:51AM 34.5219 -85.5414 234° Southwest 445 512 38,000  Level Atlanta Center
08:52AM 34.4514 -85.6636 235° Southwest 445 512 38,000  Level Atlanta Center
08:53AM 34.3725 -85.7928 234° Southwest 445 512 38,000  Level Atlanta Center
08:54AM 34.2978 -85.9019 230° Southwest 439 505 38,000  Level Atlanta Center
08:55AM 34.2250 -86.0211 234° Southwest 439 505 38,000  Level Atlanta Center
08:56AM 34.1542 -86.1322 232° Southwest 434 499 38,000  Level Atlanta Center
08:57AM 34.0814 -86.2483 233° Southwest 434 499 38,000  Level Atlanta Center
08:58AM 34.0103 -86.3644 234° Southwest 434 499 38,000  Level Atlanta Center
08:59AM 33.9350 -86.4775 231° Southwest 434 499 38,000  Level Atlanta Center
09:00AM 33.8617 -86.5906 232° Southwest 434 499 38,000  Level Atlanta Center
09:01AM 33.7906 -86.7033 233° Southwest 434 499 38,000  Level Atlanta Center
09:02AM 33.7192 -86.8158 233° Southwest 434 499 38,000  Level Atlanta Center
09:03AM 33.6539 -86.9336 236° Southwest 434 499 38,000  Level Atlanta Center
09:04AM 33.6028 -87.0642 245° Southwest 434 499 38,000  Level Atlanta Center
09:05AM 33.5494 -87.1919 243° Southwest 429 494 38,000  Level Atlanta Center
09:06AM 33.4981 -87.3219 245° Southwest 429 494 38,000  Level Atlanta Center
09:08AM 33.4219 -87.5075 244° Southwest 438 504 38,000  Level Memphis Center
09:09AM 33.3725 -87.6333 245° Southwest 432 497 38,000  Level Memphis Center
09:10AM 33.3189 -87.7594 243° Southwest 427 491 38,000  Level Memphis Center
09:11AM 33.2672 -87.8900 245° Southwest 427 491 38,000  Level Memphis Center
09:12AM 33.2156 -88.0181 244° Southwest 427 491 38,000  Level Memphis Center
09:13AM 33.1636 -88.1461 244° Southwest 427 491 38,000  Level Memphis Center
09:14AM 33.1197 -88.2614 246° West 427 491 38,000  Level Memphis Center
09:15AM 33.0656 -88.3914 244° Southwest 427 491 38,000  Level Memphis Center
09:16AM 33.0131 -88.5214 244° Southwest 432 497 38,000  Level Memphis Center
09:17AM 32.9567 -88.6539 243° Southwest 432 497 38,000  Level Memphis Center
09:18AM 32.9019 -88.7836 243° Southwest 437 503 38,000  Level Memphis Center
09:19AM 32.8472 -88.9131 243° Southwest 437 503 38,000  Level Memphis Center
09:20AM 32.7922 -89.0400 243° Southwest 437 503 38,000  Level Memphis Center
09:21AM 32.7372 -89.1694 243° Southwest 437 503 38,000  Level Memphis Center
09:22AM 32.6819 -89.3008 243° Southwest 437 503 38,000  Level Memphis Center
09:23AM 32.6267 -89.4297 243° Southwest 437 503 38,000  Level Memphis Center
09:24AM 32.5711 -89.5586 243° Southwest 437 503 38,000  Level Memphis Center
09:25AM 32.5156 -89.6847 242° Southwest 437 503 38,000 -660 Level Memphis Center
09:26AM 32.4597 -89.8108 242° Southwest 431 496 36,700 -1,020 Descending Memphis Center
09:27AM 32.4061 -89.9389 244° Southwest 432 497 36,000 -360 Descending Memphis Center
09:28AM 32.3500 -90.0672 243° Southwest 432 497 36,000  Level Memphis Center
09:29AM 32.2939 -90.1975 243° Southwest 432 497 36,000  Level Memphis Center
09:30AM 32.2397 -90.3206 243° Southwest 432 497 36,000  Level Memphis Center
09:31AM 32.1833 -90.4458 242° Southwest 432 497 36,000  Level Memphis Center
09:32AM 32.1311 -90.5708 244° Southwest 427 491 36,000 -120 Level Memphis Center
09:32AM 32.1047 -90.6308 243° Southwest 428 493 35,900  Descending Houston Center
09:33AM 32.0497 -90.7539 242° Southwest 425 489 36,000  Climbing Houston Center
09:34AM 31.9903 -90.8906 243° Southwest 423 487 36,000  Level Houston Center
09:35AM 31.9367 -91.0142 243° Southwest 425 489 36,000  Level Houston Center
09:36AM 31.8786 -91.1364 241° Southwest 427 491 36,000  Level Houston Center
09:38AM 31.8242 -91.2589 242° Southwest 424 488 36,000  Level Houston Center
09:39AM 31.7589 -91.4064 243° Southwest 423 487 36,000  Level Houston Center
09:40AM 31.7028 -91.5294 242° Southwest 425 489 36,000  Level Houston Center
09:41AM 31.6464 -91.6522 242° Southwest 427 491 36,000  Level Houston Center
09:42AM 31.5914 -91.7742 242° Southwest 425 489 36,000  Level Houston Center
09:43AM 31.5358 -91.8972 242° Southwest 425 489 36,000  Level Houston Center
09:44AM 31.4711 -92.0358 241° Southwest 429 494 36,000 -60 Level Houston Center
09:45AM 31.4147 -92.1569 241° Southwest 426 490 35,900  Descending Houston Center
09:46AM 31.3594 -92.2767 242° Southwest 421 484 36,000  Climbing Houston Center
09:47AM 31.3025 -92.3992 241° Southwest 426 490 35,900 -60 Descending Houston Center
09:48AM 31.2453 -92.5189 241° Southwest 426 490 35,900 -1,020 Level Houston Center
09:49AM 31.1808 -92.6358 237° Southwest 432 497 33,800 -2,700 Descending Houston Center
09:50AM 31.1014 -92.7783 237° Southwest 438 504 30,400 -2,040 Descending Houston Center
09:51AM 31.0356 -92.8953 237° Southwest 434 499 29,700 -300 Descending Houston Center
09:52AM 30.9689 -93.0139 237° Southwest 439 505 29,800  Climbing Houston Center
09:53AM 30.9031 -93.1308 237° Southwest 436 502 29,700 -300 Descending Houston Center
09:54AM 30.8375 -93.2478 237° Southwest 434 499 29,200 -540 Descending Houston Center
09:55AM 30.7575 -93.3889 237° Southwest 437 503 28,600 -600 Descending Houston Center
09:56AM 30.6928 -93.5036 237° Southwest 431 496 28,000 -1,140 Descending Houston Center
09:57AM 30.6275 -93.6172 236° Southwest 429 494 26,300 -1,920 Descending Houston Center
09:58AM 30.5639 -93.7281 236° Southwest 422 486 24,100 -2,040 Descending Houston Center
09:59AM 30.5014 -93.8364 236° Southwest 412 474 22,100 -2,220 Descending Houston Center
10:00AM 30.4364 -93.9522 237° Southwest 398 458 19,900 -2,160 Descending Houston Center
10:01AM 30.3692 -94.0667 236° Southwest 385 443 17,700 -1,860 Descending Houston Center
10:02AM 30.3114 -94.1664 236° Southwest 374 430 15,800 -1,980 Descending Houston Center
10:04AM 30.2536 -94.3064 244° Southwest 354 407 13,200 -1,860 Descending Houston Center
10:04AM 30.2292 -94.3733 247° West 348 400 12,000 -1,080 Descending Houston Center
10:07AM 30.1419 -94.6039 246° West 322 371 10,000 -660 Descending Houston Center
10:07AM 30.1169 -94.6711 247° West 320 368 10,000 -480 Level Houston Center
10:08AM 30.0886 -94.7586 250° West 295 339 9,100 -1,440 Descending Houston Center
10:09AM 30.0633 -94.8625 254° West 283 326 7,100 -2,160 Descending Houston Center
10:11AM 30.0392 -94.9575 254° West 269 310 4,400 -1,980 Descending Houston Center
10:12AM 30.0208 -95.0275 253° West 270 311 3,100 -1,260 Descending Houston Center
10:13AM 30.0019 -95.1075 255° West 265 305 2,000 -540 Descending Houston Center
10:14AM 29.9936 -95.1861 263° West 252 290 2,000 -360 Level Houston Center
10:15AM 29.9931 -95.2506 269° West 140 161 1,300 -720 Descending Houston Center
10:16AM 29.9936 -95.3036 271° West 142 163 500 -600 Descending Houston Center
10:17AM 29.9939 -95.3325 271° West 151 174 200 -360 Descending Houston Center